createdAt,value
2022-12-03T00:01:13.378Z,23.30
2022-12-03T00:03:43.834Z,23.50
2022-12-03T00:06:14.288Z,23.60
2022-12-03T00:08:44.557Z,23.50
2022-12-03T00:11:14.821Z,23.50
2022-12-03T00:13:45.182Z,23.60
2022-12-03T00:16:16.826Z,23.70
2022-12-03T00:18:47.783Z,23.60
2022-12-03T00:21:19.577Z,23.70
2022-12-03T00:23:51.219Z,23.80
2022-12-03T00:26:23.815Z,24.10
2022-12-03T00:28:54.632Z,24.20
2022-12-03T00:31:26.715Z,24.30
2022-12-03T00:33:58.225Z,24.50
2022-12-03T00:36:30.484Z,24.50
2022-12-03T00:39:00.844Z,24.60
2022-12-03T00:41:31.049Z,24.30
2022-12-03T00:44:01.267Z,24.10
2022-12-03T00:46:31.718Z,24.20
2022-12-03T00:49:01.974Z,24.30
2022-12-03T00:51:32.273Z,24.50
2022-12-03T00:54:02.559Z,24.70
2022-12-03T00:56:33.122Z,24.90
2022-12-03T00:59:03.321Z,25.10
2022-12-03T01:01:33.734Z,25.20
2022-12-03T01:04:04.208Z,25.30
2022-12-03T01:06:34.494Z,25.10
2022-12-03T01:09:04.750Z,25.00
2022-12-03T01:11:40.837Z,25.10
2022-12-03T01:14:23.255Z,25.20
2022-12-03T01:16:55.349Z,25.50
2022-12-03T01:19:26.515Z,25.70
2022-12-03T01:21:57.817Z,25.70
2022-12-03T01:24:29.246Z,25.90
2022-12-03T01:27:00.008Z,26.00
2022-12-03T01:29:32.117Z,26.20
2022-12-03T01:32:21.476Z,26.30
2022-12-03T01:34:55.746Z,26.40
2022-12-03T01:37:28.283Z,26.30
2022-12-03T01:39:59.407Z,26.30
2022-12-03T01:42:39.647Z,26.30
2022-12-03T01:45:21.574Z,26.30
2022-12-03T01:47:54.369Z,26.10
2022-12-03T01:50:35.342Z,26.10
2022-12-03T01:53:06.784Z,26.10
2022-12-03T01:55:37.102Z,26.10
2022-12-03T01:58:07.516Z,26.30
2022-12-03T02:00:37.902Z,26.30
2022-12-03T02:03:17.465Z,26.40
2022-12-03T02:05:47.792Z,26.30
2022-12-03T02:08:40.475Z,26.40
2022-12-03T02:11:21.456Z,26.40
2022-12-03T02:13:56.185Z,26.50
2022-12-03T02:16:27.025Z,26.50
2022-12-03T02:18:58.251Z,26.40
2022-12-03T02:21:34.357Z,26.40
2022-12-03T02:24:31.474Z,26.60
2022-12-03T02:27:01.749Z,26.70
2022-12-03T02:29:32.594Z,26.70
2022-12-03T02:32:03.575Z,26.80
2022-12-03T02:34:47.219Z,27.00
2022-12-03T02:37:28.184Z,27.00
2022-12-03T02:40:02.376Z,27.10
2022-12-03T02:42:41.852Z,27.10
2022-12-03T02:45:14.977Z,27.20
2022-12-03T02:47:53.144Z,27.30
2022-12-03T02:50:29.203Z,27.30
2022-12-03T02:53:04.813Z,27.40
2022-12-03T02:55:38.393Z,27.30
2022-12-03T02:58:09.151Z,27.10
2022-12-03T03:00:41.563Z,27.10
2022-12-03T03:03:12.334Z,27.10
2022-12-03T03:05:43.490Z,27.00
2022-12-03T03:08:14.851Z,26.90
2022-12-03T03:10:45.750Z,26.80
2022-12-03T03:13:19.300Z,26.50
2022-12-03T03:15:51.079Z,26.30
2022-12-03T03:18:24.083Z,26.00
2022-12-03T03:20:56.074Z,25.90
2022-12-03T03:23:27.472Z,25.90
2022-12-03T03:26:06.567Z,25.80
2022-12-03T03:28:50.238Z,25.70
2022-12-03T03:31:25.690Z,25.60
2022-12-03T03:33:56.205Z,25.40
2022-12-03T03:36:27.607Z,25.30
2022-12-03T03:39:00.084Z,25.50
2022-12-03T03:41:31.883Z,25.70
2022-12-03T03:44:02.813Z,25.80
2022-12-03T03:46:34.954Z,25.80
2022-12-03T03:49:07.142Z,25.70
2022-12-03T03:51:39.243Z,25.60
2022-12-03T03:54:10.249Z,25.40
2022-12-03T03:56:40.638Z,25.20
2022-12-03T03:59:11.118Z,25.10
2022-12-03T04:01:43.335Z,24.90
2022-12-03T04:04:22.302Z,24.80
2022-12-03T04:06:53.546Z,24.70
2022-12-03T04:09:23.958Z,24.70
2022-12-03T04:12:12.694Z,24.90
2022-12-03T04:14:43.009Z,25.10
2022-12-03T04:17:13.338Z,25.50
2022-12-03T04:19:43.634Z,25.80
2022-12-03T04:22:32.150Z,26.10
2022-12-03T04:25:25.029Z,26.30
2022-12-03T04:28:15.853Z,26.50
2022-12-03T04:30:47.402Z,26.60
2022-12-03T04:33:36.216Z,26.70
2022-12-03T04:36:06.990Z,26.70
2022-12-03T04:38:38.032Z,26.70
2022-12-03T04:41:09.999Z,26.50
2022-12-03T04:43:59.908Z,26.30
2022-12-03T04:46:30.299Z,26.00
2022-12-03T04:49:00.665Z,25.80
2022-12-03T04:51:31.027Z,25.60
2022-12-03T04:54:01.389Z,25.40
2022-12-03T04:56:31.672Z,25.20
2022-12-03T04:59:02.871Z,25.10
2022-12-03T05:01:33.352Z,25.10
2022-12-03T05:04:03.826Z,25.20
2022-12-03T05:06:34.089Z,25.30
2022-12-03T05:09:04.457Z,25.20
2022-12-03T05:11:34.794Z,25.10
2022-12-03T05:14:05.536Z,25.00
2022-12-03T05:16:35.905Z,24.90
2022-12-03T05:19:09.907Z,24.70
2022-12-03T05:21:40.263Z,24.60
2022-12-03T05:24:11.365Z,24.50
2022-12-03T05:26:41.611Z,24.60
2022-12-03T05:29:11.909Z,24.60
2022-12-03T05:31:42.111Z,24.70
2022-12-03T05:34:12.822Z,24.70
2022-12-03T05:36:43.485Z,24.80
2022-12-03T05:39:13.801Z,24.90
2022-12-03T05:42:02.211Z,25.00
2022-12-03T05:44:32.470Z,24.90
2022-12-03T05:47:02.713Z,25.00
2022-12-03T05:49:33.356Z,25.20
2022-12-03T05:52:03.582Z,25.20
2022-12-03T05:54:33.931Z,25.30
2022-12-03T05:57:04.233Z,25.30
2022-12-03T05:59:34.439Z,25.40
2022-12-03T06:02:04.734Z,25.50
2022-12-03T06:04:35.128Z,25.60
2022-12-03T06:07:07.471Z,25.60
2022-12-03T06:09:41.676Z,25.50
2022-12-03T06:12:12.424Z,25.40
2022-12-03T06:14:43.359Z,25.30
2022-12-03T06:17:14.028Z,25.20
2022-12-03T06:19:44.393Z,25.00
2022-12-03T06:22:16.062Z,24.80
2022-12-03T06:24:46.274Z,24.70
2022-12-03T06:27:16.600Z,24.60
2022-12-03T06:29:46.906Z,24.50
2022-12-03T06:32:17.257Z,24.40
2022-12-03T06:34:48.791Z,24.40
2022-12-03T06:37:19.088Z,24.50
2022-12-03T06:39:58.597Z,24.50
2022-12-03T06:42:29.998Z,24.50
2022-12-03T06:45:00.316Z,24.40
2022-12-03T06:47:33.438Z,24.50
2022-12-03T06:50:03.733Z,24.50
2022-12-03T06:52:34.976Z,24.40
2022-12-03T06:55:05.208Z,24.40
2022-12-03T06:57:35.471Z,24.40
2022-12-03T07:00:07.687Z,24.30
2022-12-03T07:02:38.648Z,24.20
2022-12-03T07:05:10.520Z,24.10
2022-12-03T07:07:41.051Z,24.10
2022-12-03T07:10:16.510Z,24.00
2022-12-03T07:12:47.222Z,24.00
2022-12-03T07:15:18.123Z,24.00
2022-12-03T07:17:48.817Z,24.00
2022-12-03T07:20:29.950Z,23.90
2022-12-03T07:23:02.212Z,23.90
2022-12-03T07:25:33.298Z,23.80
2022-12-03T07:28:05.536Z,23.80
2022-12-03T07:30:36.411Z,23.80
2022-12-03T07:33:09.871Z,23.70
2022-12-03T07:35:40.289Z,23.60
2022-12-03T07:38:10.581Z,23.60
2022-12-03T07:40:41.405Z,23.50
2022-12-03T07:43:17.768Z,23.50
2022-12-03T07:45:56.562Z,23.40
2022-12-03T07:48:26.923Z,23.40
2022-12-03T07:50:58.468Z,23.30
2022-12-03T07:53:29.127Z,23.30
2022-12-03T07:55:59.819Z,23.30
2022-12-03T07:58:32.542Z,23.30
2022-12-03T08:01:03.374Z,23.30
2022-12-03T08:03:34.071Z,23.30
2022-12-03T08:06:05.590Z,23.30
2022-12-03T08:08:47.897Z,23.20
2022-12-03T08:11:18.880Z,23.20
2022-12-03T08:13:52.553Z,23.10
2022-12-03T08:16:25.087Z,23.00
2022-12-03T08:19:00.591Z,23.00
2022-12-03T08:24:25.525Z,22.80
2022-12-03T08:26:56.251Z,22.80
2022-12-03T08:29:29.234Z,22.70
2022-12-03T08:32:02.057Z,22.70
2022-12-03T08:34:44.721Z,22.60
2022-12-03T08:37:21.487Z,22.60
2022-12-03T08:39:56.961Z,22.50
2022-12-03T08:42:44.072Z,22.50
2022-12-03T08:45:41.615Z,22.50
2022-12-03T08:48:29.766Z,22.40
2022-12-03T08:51:03.561Z,22.30
2022-12-03T08:53:55.430Z,22.30
2022-12-03T08:56:32.764Z,22.30
2022-12-03T08:59:18.174Z,22.20
2022-12-03T09:01:51.089Z,22.20
2022-12-03T09:04:42.752Z,22.10
2022-12-03T09:07:13.070Z,22.00
2022-12-03T09:09:43.499Z,21.80
2022-12-03T09:12:13.738Z,21.80
2022-12-03T09:14:44.475Z,21.70
2022-12-03T09:17:14.654Z,21.60
2022-12-03T09:19:46.706Z,21.50
2022-12-03T09:22:18.982Z,21.40
2022-12-03T09:24:50.216Z,21.30
2022-12-03T09:27:20.599Z,21.20
2022-12-03T09:29:51.496Z,21.20
2022-12-03T09:32:21.732Z,21.20
2022-12-03T09:34:52.577Z,21.10
2022-12-03T09:37:24.295Z,21.10
2022-12-03T09:39:54.668Z,21.00
2022-12-03T09:42:25.182Z,21.00
2022-12-03T09:44:56.155Z,20.90
2022-12-03T09:47:27.055Z,20.90
2022-12-03T09:49:58.575Z,20.90
2022-12-03T09:52:36.013Z,20.90
2022-12-03T09:55:21.154Z,20.80
2022-12-03T09:57:51.932Z,20.80
2022-12-03T10:00:25.697Z,20.70
2022-12-03T10:03:01.049Z,20.70
2022-12-03T10:05:32.568Z,20.70
2022-12-03T10:08:14.634Z,20.70
2022-12-03T10:10:45.371Z,20.70
2022-12-03T10:13:25.651Z,20.70
2022-12-03T10:15:58.704Z,20.70
2022-12-03T10:18:35.668Z,20.70
2022-12-03T10:21:26.336Z,20.70
2022-12-03T10:24:19.630Z,20.60
2022-12-03T10:26:51.793Z,20.60
2022-12-03T10:29:29.941Z,20.60
2022-12-03T10:32:13.348Z,20.60
2022-12-03T10:34:45.126Z,20.60
2022-12-03T10:37:18.926Z,20.50
2022-12-03T10:40:00.501Z,20.50
2022-12-03T10:42:36.572Z,20.50
2022-12-03T10:45:21.852Z,20.40
2022-12-03T10:48:09.205Z,20.40
2022-12-03T10:50:41.448Z,20.40
2022-12-03T10:53:12.077Z,20.40
2022-12-03T10:55:44.208Z,20.40
2022-12-03T10:58:29.373Z,20.30
2022-12-03T11:01:01.375Z,20.30
2022-12-03T11:03:38.193Z,20.20
2022-12-03T11:06:08.857Z,20.20
2022-12-03T11:08:40.773Z,20.20
2022-12-03T11:11:23.844Z,20.20
2022-12-03T11:13:59.447Z,20.00
2022-12-03T11:16:45.349Z,20.00
2022-12-03T11:19:38.818Z,20.00
2022-12-03T11:22:12.515Z,19.90
2022-12-03T11:24:43.876Z,19.90
2022-12-03T11:27:14.024Z,19.80
2022-12-03T11:30:00.084Z,19.70
2022-12-03T11:32:45.835Z,19.60
2022-12-03T11:35:36.726Z,19.50
2022-12-03T11:38:46.137Z,19.40
2022-12-03T11:41:23.016Z,19.30
2022-12-03T11:43:58.908Z,19.20
2022-12-03T11:46:32.304Z,19.20
2022-12-03T11:49:04.016Z,19.10
2022-12-03T11:51:35.296Z,19.00
2022-12-03T11:54:05.936Z,18.90
2022-12-03T11:56:36.784Z,18.80
2022-12-03T11:59:15.283Z,18.80
2022-12-03T12:01:46.457Z,18.70
2022-12-03T12:04:37.453Z,18.70
2022-12-03T12:07:08.321Z,18.50
2022-12-03T12:09:57.071Z,18.50
2022-12-03T12:12:39.717Z,18.50
2022-12-03T12:15:42.128Z,18.40
2022-12-03T12:18:36.812Z,18.40
2022-12-03T12:21:49.822Z,18.30
2022-12-03T12:24:45.635Z,18.30
2022-12-03T12:27:22.439Z,18.30
2022-12-03T12:30:01.074Z,18.30
2022-12-03T12:32:50.055Z,18.40
2022-12-03T12:35:29.182Z,18.40
2022-12-03T12:38:10.583Z,18.40
2022-12-03T12:40:43.197Z,18.40
2022-12-03T12:43:28.904Z,18.50
2022-12-03T12:46:24.952Z,18.50
2022-12-03T12:48:59.362Z,18.50
2022-12-03T12:51:29.900Z,18.50
2022-12-03T12:54:00.524Z,18.50
2022-12-03T12:56:33.561Z,18.40
2022-12-03T12:59:24.959Z,18.40
2022-12-03T13:01:56.528Z,18.40
2022-12-03T13:04:29.245Z,18.30
2022-12-03T13:06:59.998Z,18.20
2022-12-03T13:09:30.395Z,18.20
2022-12-03T13:12:09.137Z,18.10
2022-12-03T13:14:40.202Z,18.00
2022-12-03T13:17:20.775Z,17.90
2022-12-03T13:20:00.452Z,17.90
2022-12-03T13:22:36.083Z,17.80
2022-12-03T13:26:00.274Z,17.70
2022-12-03T13:28:51.385Z,17.70
2022-12-03T13:31:28.936Z,17.60
2022-12-03T13:34:00.152Z,17.50
2022-12-03T13:36:44.693Z,17.50
2022-12-03T13:39:23.558Z,17.40
2022-12-03T13:42:12.279Z,17.40
2022-12-03T13:44:50.686Z,17.30
2022-12-03T13:47:26.166Z,17.30
2022-12-03T13:50:05.389Z,17.20
2022-12-03T13:52:37.675Z,17.20
2022-12-03T13:55:12.674Z,17.20
2022-12-03T13:57:43.505Z,17.10
2022-12-03T14:00:14.332Z,17.10
2022-12-03T14:02:45.289Z,17.10
2022-12-03T14:05:15.784Z,17.10
2022-12-03T14:07:46.153Z,17.00
2022-12-03T14:10:17.952Z,17.00
2022-12-03T14:12:49.624Z,17.00
2022-12-03T14:15:20.441Z,17.00
2022-12-03T14:17:51.749Z,16.90
2022-12-03T14:20:26.226Z,16.90
2022-12-03T14:22:59.537Z,16.80
2022-12-03T14:25:33.704Z,16.80
2022-12-03T14:28:04.103Z,16.80
2022-12-03T14:30:34.402Z,16.70
2022-12-03T14:33:05.161Z,16.70
2022-12-03T14:35:35.456Z,16.70
2022-12-03T14:38:05.917Z,16.70
2022-12-03T14:40:36.466Z,16.60
2022-12-03T14:43:07.282Z,16.60
2022-12-03T14:45:37.586Z,16.60
2022-12-03T14:48:08.290Z,16.60
2022-12-03T14:50:38.621Z,16.50
2022-12-03T14:53:10.471Z,16.50
2022-12-03T14:55:40.752Z,16.40
2022-12-03T14:58:11.533Z,16.40
2022-12-03T15:00:41.772Z,16.30
2022-12-03T15:03:14.421Z,16.20
2022-12-03T15:05:49.705Z,16.20
2022-12-03T15:08:27.239Z,16.20
2022-12-03T15:10:58.130Z,16.10
2022-12-03T15:13:28.977Z,16.10
2022-12-03T15:15:59.253Z,16.10
2022-12-03T15:18:29.605Z,16.10
2022-12-03T15:21:00.375Z,16.10
2022-12-03T15:23:30.735Z,16.00
2022-12-03T15:26:01.074Z,16.00
2022-12-03T15:28:31.611Z,15.90
2022-12-03T15:31:01.992Z,15.90
2022-12-03T15:33:32.367Z,15.80
2022-12-03T15:36:07.366Z,15.80
2022-12-03T15:38:37.820Z,15.70
2022-12-03T15:41:23.906Z,15.70
2022-12-03T15:43:55.950Z,15.70
2022-12-03T15:46:27.557Z,15.60
2022-12-03T15:49:07.169Z,15.60
2022-12-03T15:51:38.712Z,15.50
2022-12-03T15:54:09.236Z,15.40
2022-12-03T15:56:39.495Z,15.40
2022-12-03T15:59:10.492Z,15.40
2022-12-03T16:01:41.159Z,15.30
2022-12-03T16:04:11.531Z,15.30
2022-12-03T16:06:42.242Z,15.20
2022-12-03T16:09:15.314Z,15.20
2022-12-03T16:11:45.574Z,15.10
2022-12-03T16:14:17.208Z,15.10
2022-12-03T16:16:51.245Z,15.10
2022-12-03T16:19:23.508Z,15.10
2022-12-03T16:21:58.813Z,15.10
2022-12-03T16:24:31.401Z,15.00
2022-12-03T16:27:05.239Z,15.00
2022-12-03T16:29:36.134Z,15.00
2022-12-03T16:32:07.295Z,14.90
2022-12-03T16:34:41.906Z,14.90
2022-12-03T16:37:13.561Z,14.90
2022-12-03T16:39:55.471Z,14.90
2022-12-03T16:42:26.416Z,14.90
2022-12-03T16:44:57.301Z,14.80
2022-12-03T16:47:33.640Z,14.80
2022-12-03T16:50:14.155Z,14.80
2022-12-03T16:52:51.518Z,14.80
2022-12-03T16:55:21.998Z,14.70
2022-12-03T16:57:52.469Z,14.70
2022-12-03T17:00:23.627Z,14.60
2022-12-03T17:02:54.107Z,14.60
2022-12-03T17:05:24.613Z,14.60
2022-12-03T17:07:56.585Z,14.60
2022-12-03T17:10:30.441Z,14.60
2022-12-03T17:13:11.212Z,14.50
2022-12-03T17:15:42.857Z,14.50
2022-12-03T17:18:16.389Z,14.40
2022-12-03T17:20:46.673Z,14.40
2022-12-03T17:23:19.418Z,14.30
2022-12-03T17:25:49.784Z,14.30
2022-12-03T17:28:23.503Z,14.30
2022-12-03T17:30:54.341Z,14.20
2022-12-03T17:33:30.419Z,14.20
2022-12-03T17:36:03.872Z,14.20
2022-12-03T17:38:38.871Z,14.10
2022-12-03T17:41:12.490Z,14.10
2022-12-03T17:43:46.095Z,14.10
2022-12-03T17:46:18.839Z,14.10
2022-12-03T17:48:49.633Z,14.00
2022-12-03T17:51:25.770Z,14.00
2022-12-03T17:53:57.531Z,14.00
2022-12-03T17:56:28.251Z,14.00
2022-12-03T17:59:02.009Z,13.90
2022-12-03T18:01:35.206Z,13.90
2022-12-03T18:04:06.517Z,13.80
2022-12-03T18:06:40.293Z,13.80
2022-12-03T18:09:11.108Z,13.80
2022-12-03T18:11:44.675Z,13.70
2022-12-03T18:14:18.783Z,13.70
2022-12-03T18:16:51.773Z,13.70
2022-12-03T18:19:22.077Z,13.70
2022-12-03T18:21:52.475Z,13.70
2022-12-03T18:24:22.986Z,13.60
2022-12-03T18:26:55.361Z,13.60
2022-12-03T18:29:25.770Z,13.60
2022-12-03T18:31:56.107Z,13.60
2022-12-03T18:34:26.389Z,13.60
2022-12-03T18:37:00.148Z,13.60
2022-12-03T18:39:35.652Z,13.50
2022-12-03T18:42:21.200Z,13.50
2022-12-03T18:44:55.086Z,13.50
2022-12-03T18:47:31.576Z,13.50
2022-12-03T18:50:01.880Z,13.50
2022-12-03T18:52:33.912Z,13.40
2022-12-03T18:55:04.290Z,13.50
2022-12-03T18:57:34.950Z,13.50
2022-12-03T19:00:13.655Z,13.50
2022-12-03T19:05:37.410Z,13.50
2022-12-03T19:08:16.417Z,13.50
2022-12-03T19:10:47.774Z,13.50
2022-12-03T19:13:21.303Z,13.50
2022-12-03T19:15:52.529Z,13.50
2022-12-03T19:18:27.617Z,13.50
2022-12-03T19:21:01.197Z,13.50
2022-12-03T19:23:31.865Z,13.50
2022-12-03T19:26:06.024Z,13.50
2022-12-03T19:28:37.428Z,13.50
2022-12-03T19:31:19.509Z,13.60
2022-12-03T19:33:50.339Z,13.60
2022-12-03T19:36:36.049Z,13.70
2022-12-03T19:39:07.948Z,13.70
2022-12-03T19:41:38.150Z,13.70
2022-12-03T19:44:11.062Z,13.80
2022-12-03T19:46:46.990Z,13.80
2022-12-03T19:49:20.114Z,13.90
2022-12-03T19:51:50.580Z,13.90
2022-12-03T19:54:21.417Z,14.00
2022-12-03T19:56:55.340Z,14.10
2022-12-03T19:59:25.627Z,14.20
2022-12-03T20:01:55.962Z,14.30
2022-12-03T20:04:29.053Z,14.30
2022-12-03T20:06:59.426Z,14.40
2022-12-03T20:09:29.916Z,14.50
2022-12-03T20:12:00.852Z,14.50
2022-12-03T20:14:31.342Z,14.60
2022-12-03T20:17:01.917Z,14.70
2022-12-03T20:19:33.534Z,14.70
2022-12-03T20:22:08.922Z,14.80
2022-12-03T20:24:41.220Z,14.90
2022-12-03T20:27:11.854Z,15.00
2022-12-03T20:29:42.493Z,15.00
2022-12-03T20:32:13.485Z,15.10
2022-12-03T20:34:46.671Z,15.30
2022-12-03T20:37:19.425Z,15.30
2022-12-03T20:39:53.537Z,15.40
2022-12-03T20:42:26.415Z,15.50
2022-12-03T20:44:57.801Z,15.70
2022-12-03T20:47:28.533Z,15.90
2022-12-03T20:49:59.224Z,16.10
2022-12-03T20:52:29.950Z,16.30
2022-12-03T20:55:04.127Z,16.50
2022-12-03T20:57:35.024Z,16.50
2022-12-03T21:00:09.544Z,16.70
2022-12-03T21:02:42.705Z,16.70
2022-12-03T21:05:13.649Z,16.70
2022-12-03T21:07:44.613Z,16.80
2022-12-03T21:10:36.149Z,16.90
2022-12-03T21:13:06.880Z,16.90
2022-12-03T21:15:37.691Z,17.00
2022-12-03T21:18:10.866Z,17.10
2022-12-03T21:20:51.563Z,17.40
2022-12-03T21:23:22.198Z,17.80
2022-12-03T21:25:53.103Z,18.30
2022-12-03T21:28:24.754Z,18.70
2022-12-03T21:30:56.203Z,19.20
2022-12-03T21:33:26.932Z,19.50
2022-12-03T21:35:58.683Z,19.90
2022-12-03T21:38:48.918Z,20.20
2022-12-03T21:41:20.012Z,20.60
2022-12-03T21:43:50.246Z,20.90
2022-12-03T21:47:09.877Z,21.20
2022-12-03T21:49:12.224Z,21.60
2022-12-03T21:51:42.963Z,21.90
2022-12-03T21:54:13.259Z,22.10
2022-12-03T21:56:43.936Z,22.20
2022-12-03T21:59:14.186Z,22.20
2022-12-03T22:01:47.340Z,22.40
2022-12-03T22:04:21.327Z,22.50
2022-12-03T22:06:51.659Z,22.60
2022-12-03T22:09:26.308Z,22.80
2022-12-03T22:11:58.806Z,22.90
2022-12-03T22:14:29.858Z,23.10
2022-12-03T22:17:00.184Z,23.30
2022-12-03T22:19:30.664Z,23.50
2022-12-03T22:22:00.896Z,23.70
2022-12-03T22:24:31.417Z,23.90
2022-12-03T22:27:01.671Z,24.00
2022-12-03T22:29:32.005Z,24.00
2022-12-03T22:32:02.335Z,23.90
2022-12-03T22:34:32.573Z,24.00
2022-12-03T22:37:03.195Z,24.00
2022-12-03T22:39:33.446Z,24.00
2022-12-03T22:42:03.758Z,23.80
2022-12-03T22:44:33.961Z,23.70
2022-12-03T22:47:04.251Z,23.90
2022-12-03T22:49:37.592Z,23.80
2022-12-03T22:52:08.125Z,23.90
2022-12-03T22:54:38.362Z,23.90
2022-12-03T22:57:09.080Z,23.90
2022-12-03T22:59:40.257Z,23.90
2022-12-03T23:02:11.191Z,23.80
2022-12-03T23:04:41.624Z,23.90
2022-12-03T23:07:13.329Z,24.00
2022-12-03T23:09:43.878Z,24.10
2022-12-03T23:12:16.504Z,24.10
2022-12-03T23:14:46.724Z,24.20
2022-12-03T23:17:16.988Z,24.30
2022-12-03T23:19:47.227Z,24.50
2022-12-03T23:22:17.507Z,24.50
2022-12-03T23:24:48.425Z,24.80
2022-12-03T23:27:18.721Z,24.90
2022-12-03T23:29:49.041Z,25.00
2022-12-03T23:32:19.225Z,24.90
2022-12-03T23:34:49.648Z,24.90
2022-12-03T23:37:19.924Z,25.00
2022-12-03T23:39:53.610Z,25.10
2022-12-03T23:42:24.126Z,25.20
2022-12-03T23:44:55.802Z,25.30
2022-12-03T23:47:25.954Z,25.30
2022-12-03T23:49:56.309Z,25.40
2022-12-03T23:52:28.583Z,25.60
2022-12-03T23:54:58.920Z,25.80
2022-12-03T23:57:29.092Z,26.00
2022-12-03T23:59:59.315Z,26.10
